Terminal Aerodrome Forecast
Issued by NWS

Home | Current Version | Previous Version | Text Only | Print | Product List | Glossary On
Versions: 1 2 3 4 5 6 7 8 9 10 11 12 13 14
000
FTUS42 KGSP 281303 AAA
TAFGMU
TAF AMD
KGMU 281303Z 2813/2912 23003KT 3SM -RA BR OVC005
     FM282000 23006KT P6SM OVC013
     FM282300 30004KT P6SM OVC024
     FM290500 35004KT P6SM -RA OVC018=

USA.gov is the U.S. government's official web portal to all federal, state and local government web resources and services.